Flight Track Log - Related Links

Times and Time Zones

All times are in EDT time to prevent confusion due to time zone crossing. See the SKW5414 flight status page for this flight to view local times or setup timezone preferences in your user account.

Time Position Orientation Groundspeed Altitude Reporting Facility
EDT Latitude Longitude Course Direction KTS MPH feet Rate Location/Type
Sat 01:30:42 AM 37.6358 -122.3597 360° North 157 181 32,000  Level Oakland Center
Sat 01:31:43 AM 37.6825 -122.3297 27° Northeast 195 224 2,500 -13,525 Descending Oakland Center
Sat 01:32:44 AM 37.7444 -122.3472 347° North 231 266 4,500 2,164 Climbing Oakland Center
Sat 01:33:45 AM 37.8142 -122.3744 343° North 257 296 6,900 2,311 Climbing Oakland Center
Sat 01:34:00 AM 38.0380 -122.3833 North  Level FlightAware Approximate
Sat 01:34:46 AM 37.8936 -122.3728 North 277 319 9,200  Level Oakland Center
Sat 01:35:00 AM 38.1470 -122.3833 360° North  Level FlightAware Approximate
Sat 01:35:47 AM 37.9761 -122.3689 North 296 341 11,300  Level Oakland Center
Sat 01:36:47 AM 38.0642 -122.3644 North 318 366 13,300 1,884 Climbing Oakland Center
Sat 01:37:48 AM 38.1542 -122.3589 North 324 373 15,100 1,869 Climbing Oakland Center
Sat 01:38:49 AM 38.2653 -122.3503 North 334 384 17,100 1,623 Climbing Oakland Center
Sat 01:39:50 AM 38.3600 -122.3450 North 341 392 18,400 1,377 Climbing Oakland Center
Sat 01:40:51 AM 38.4567 -122.3386 North 348 400 19,900 1,289 Climbing Oakland Center
Sat 01:41:51 AM 38.5544 -122.3325 North 352 405 21,000 1,091 Climbing Oakland Center
Sat 01:42:52 AM 38.6544 -122.3272 North 359 413 22,100 1,082 Climbing Oakland Center
Sat 01:43:53 AM 38.7444 -122.3225 North 364 419 23,200 1,131 Climbing Oakland Center
Sat 01:44:54 AM 38.8672 -122.3144 North 366 421 24,400 1,041 Climbing Oakland Center
Sat 01:45:54 AM 38.9706 -122.3089 North 368 423 25,300 843 Climbing Oakland Center
Sat 01:46:55 AM 39.0739 -122.3019 North 370 426 26,100 689 Climbing Oakland Center
Sat 01:47:56 AM 39.1794 -122.2800 North 378 435 26,700 645 Climbing Oakland Center
Sat 01:48:56 AM 39.2867 -122.2569 North 385 443 27,400 595 Climbing Oakland Center
Sat 01:49:57 AM 39.3947 -122.2347 North 391 450 27,900 492 Climbing Oakland Center
Sat 01:50:58 AM 39.4892 -122.2142 10° North 392 451 28,400 595 Climbing Oakland Center
Sat 01:51:58 AM 39.6206 -122.1872 North 398 458 29,100 545 Climbing Oakland Center
Sat 01:52:59 AM 39.7300 -122.1639 North 398 458 29,500 443 Climbing Oakland Center
Sat 01:54:00 AM 39.8397 -122.1406 North 401 461 30,000 446 Climbing Oakland Center
Sat 01:55:00 AM 39.9492 -122.1175 North 402 463 30,400 347 Climbing Oakland Center
Sat 01:56:01 AM 40.0589 -122.0928 10° North 405 466 30,700 492 Climbing Oakland Center
Sat 01:57:02 AM 40.1700 -122.0667 10° North 413 475 31,400 645 Climbing Oakland Center
Sat 01:58:02 AM 40.2778 -122.0456 North 401 461 32,000 298 Climbing Oakland Center
Sat 01:59:03 AM 40.3864 -122.0236 North 399 459 32,000  Level Oakland Center
Sat 02:00:04 AM 40.4972 -122.0006 North 405 466 32,000  Level Oakland Center
Sat 02:01:04 AM 40.6094 -121.9764 North 409 471 32,000  Level Oakland Center
Sat 02:02:05 AM 40.7206 -121.9514 10° North 408 470 32,000  Level Oakland Center
Sat 02:03:06 AM 40.8553 -121.9244 North 409 471 32,000  Level Oakland Center
Sat 02:04:06 AM 40.9656 -121.9008 North 405 466 32,000  Level Oakland Center
Sat 02:05:07 AM 41.0753 -121.8758 10° North 401 461 32,000  Level Oakland Center
Sat 02:06:00 AM 41.1639 -121.8603 North 400 460 32,000  Level Seattle Center
Sat 02:07:00 AM 41.2744 -121.8375 North 402 463 32,000  Level Seattle Center
Sat 02:08:01 AM 41.3828 -121.8119 10° North 397 457 32,000  Level Seattle Center
Sat 02:09:01 AM 41.4928 -121.7886 North 399 459 32,000  Level Seattle Center
Sat 02:10:01 AM 41.6017 -121.7631 10° North 400 460 32,000  Level Seattle Center
Sat 02:11:02 AM 41.7103 -121.7392 North 397 457 32,000  Level Seattle Center
Sat 02:12:02 AM 41.8194 -121.7142 10° North 397 457 32,000  Level Seattle Center
Sat 02:13:03 AM 41.9281 -121.6900 North 399 459 32,000  Level Seattle Center
Sat 02:14:03 AM 42.0389 -121.6636 10° North 399 459 32,000  Level Seattle Center
Sat 02:15:04 AM 42.1439 -121.6414 North 399 459 32,000  Level Seattle Center
Sat 02:16:04 AM 42.2747 -121.6106 10° North 402 463 32,000  Level Seattle Center
Sat 02:17:05 AM 42.3842 -121.5853 10° North 402 463 32,000 -397 Level Seattle Center
Sat 02:18:05 AM 42.4942 -121.5606 North 401 461 31,200 -992 Descending Seattle Center
Sat 02:19:06 AM 42.6075 -121.5353 North 410 472 30,000 -1,289 Descending Seattle Center
Sat 02:20:06 AM 42.7242 -121.5081 10° North 425 489 28,600 -1,438 Descending Seattle Center
Sat 02:21:07 AM 42.8439 -121.4808 North 435 501 27,100 -1,488 Descending Seattle Center
Sat 02:22:07 AM 42.9608 -121.4561 North 429 494 25,600 -1,600 Descending Seattle Center
Sat 02:23:07 AM 43.0772 -121.4286 10° North 426 490 23,900 -1,785 Descending Seattle Center
Sat 02:24:08 AM 43.1972 -121.4011 North 437 503 22,000 -1,884 Descending Seattle Center
Sat 02:25:08 AM 43.3139 -121.3722 10° North 429 494 20,100 -1,884 Descending Seattle Center
Sat 02:26:09 AM 43.4300 -121.3464 North 425 489 18,200 -1,736 Descending Seattle Center
Sat 02:27:09 AM 43.5453 -121.3181 10° North 423 487 16,600 -1,785 Descending Seattle Center
Sat 02:28:10 AM 43.6625 -121.2917 North 409 471 14,600 -1,438 Descending Seattle Center
Sat 02:29:10 AM 43.7556 -121.2694 10° North 347 399 13,700 -694 Descending Seattle Center
Sat 02:30:11 AM 43.8350 -121.2517 North 304 350 13,200 -893 Descending Seattle Center
Sat 02:31:11 AM 43.9019 -121.2342 11° North 254 292 11,900 -1,250 Descending Seattle Center
Sat 02:32:11 AM 43.9653 -121.2033 19° North 240 276 10,700 -942 Descending Seattle Center
Sat 02:33:12 AM 44.0225 -121.1622 27° Northeast 232 267 10,000 -893 Descending Seattle Center
Sat 02:34:12 AM 44.0783 -121.1236 26° Northeast 226 260 8,900 -1,250 Descending Seattle Center
Sat 02:35:12 AM 44.1333 -121.0836 28° Northeast 226 260 7,500 -1,240 Descending Seattle Center
Sat 02:36:13 AM 44.1817 -121.0939 351° North 214 246 6,400 -992 Descending Seattle Center
Sat 02:37:13 AM 44.1753 -121.1667 263° West 204 235 5,500 -950 Descending Seattle Center
Sat 02:38:13 AM 44.1919 -121.2161 295° West 172 198 4,500 -1,000 Descending Seattle Center

Login

Don't have an account? Register now (free) for customized features, flight alerts, and more!